sensor_id;sensor_type;location;lat;lon;timestamp;temperature;humidity
41760;DHT22;27438;53.396;-6.670;2022-07-29T00:01:57;16.40;68.30
41760;DHT22;27438;53.396;-6.670;2022-07-29T00:04:23;16.40;68.40
41760;DHT22;27438;53.396;-6.670;2022-07-29T00:06:49;16.40;68.50
41760;DHT22;27438;53.396;-6.670;2022-07-29T00:09:14;16.50;68.60
41760;DHT22;27438;53.396;-6.670;2022-07-29T00:11:40;16.50;68.60
41760;DHT22;27438;53.396;-6.670;2022-07-29T00:14:06;16.60;68.70
41760;DHT22;27438;53.396;-6.670;2022-07-29T00:16:32;16.60;68.60
41760;DHT22;27438;53.396;-6.670;2022-07-29T00:18:57;16.60;68.60
41760;DHT22;27438;53.396;-6.670;2022-07-29T00:21:23;16.60;68.70
41760;DHT22;27438;53.396;-6.670;2022-07-29T00:23:49;16.70;68.70
41760;DHT22;27438;53.396;-6.670;2022-07-29T00:26:14;16.80;68.80
41760;DHT22;27438;53.396;-6.670;2022-07-29T00:28:40;16.80;68.80
41760;DHT22;27438;53.396;-6.670;2022-07-29T00:31:06;16.80;68.70
41760;DHT22;27438;53.396;-6.670;2022-07-29T00:33:33;16.90;68.80
41760;DHT22;27438;53.396;-6.670;2022-07-29T00:35:59;17.00;68.80
41760;DHT22;27438;53.396;-6.670;2022-07-29T00:38:24;17.10;68.80
41760;DHT22;27438;53.396;-6.670;2022-07-29T00:40:50;17.10;68.80
41760;DHT22;27438;53.396;-6.670;2022-07-29T00:43:17;17.20;68.70
41760;DHT22;27438;53.396;-6.670;2022-07-29T00:45:43;17.30;68.70
41760;DHT22;27438;53.396;-6.670;2022-07-29T00:48:09;17.30;68.50
41760;DHT22;27438;53.396;-6.670;2022-07-29T00:50:36;17.40;68.30
41760;DHT22;27438;53.396;-6.670;2022-07-29T00:53:03;17.40;68.10
41760;DHT22;27438;53.396;-6.670;2022-07-29T00:55:29;17.40;67.80
41760;DHT22;27438;53.396;-6.670;2022-07-29T00:57:55;17.40;67.70
41760;DHT22;27438;53.396;-6.670;2022-07-29T01:00:25;17.40;67.60
41760;DHT22;27438;53.396;-6.670;2022-07-29T01:02:52;17.40;67.40
41760;DHT22;27438;53.396;-6.670;2022-07-29T01:05:21;17.40;67.30
41760;DHT22;27438;53.396;-6.670;2022-07-29T01:07:49;17.50;67.30
41760;DHT22;27438;53.396;-6.670;2022-07-29T01:10:16;17.50;67.30
41760;DHT22;27438;53.396;-6.670;2022-07-29T01:12:45;17.50;67.20
41760;DHT22;27438;53.396;-6.670;2022-07-29T01:15:12;17.50;67.20
41760;DHT22;27438;53.396;-6.670;2022-07-29T01:23:23;17.60;67.30
41760;DHT22;27438;53.396;-6.670;2022-07-29T01:31:54;17.70;67.60
41760;DHT22;27438;53.396;-6.670;2022-07-29T01:35:06;17.70;67.50
41760;DHT22;27438;53.396;-6.670;2022-07-29T01:39:54;17.80;67.40
41760;DHT22;27438;53.396;-6.670;2022-07-29T01:47:50;17.80;67.80
41760;DHT22;27438;53.396;-6.670;2022-07-29T01:50:18;17.80;67.20
41760;DHT22;27438;53.396;-6.670;2022-07-29T01:52:58;17.80;67.10
41760;DHT22;27438;53.396;-6.670;2022-07-29T01:55:31;17.80;67.20
41760;DHT22;27438;53.396;-6.670;2022-07-29T01:57:59;17.90;67.30
41760;DHT22;27438;53.396;-6.670;2022-07-29T02:00:27;17.90;67.20
41760;DHT22;27438;53.396;-6.670;2022-07-29T02:02:55;17.90;67.20
41760;DHT22;27438;53.396;-6.670;2022-07-29T02:05:22;17.90;67.20
41760;DHT22;27438;53.396;-6.670;2022-07-29T02:07:50;17.90;67.30
41760;DHT22;27438;53.396;-6.670;2022-07-29T02:10:22;17.90;67.30
41760;DHT22;27438;53.396;-6.670;2022-07-29T02:12:50;17.90;67.20
41760;DHT22;27438;53.396;-6.670;2022-07-29T02:15:16;18.00;67.20
41760;DHT22;27438;53.396;-6.670;2022-07-29T02:18:07;18.00;67.20
41760;DHT22;27438;53.396;-6.670;2022-07-29T02:20:34;18.00;67.20
41760;DHT22;27438;53.396;-6.670;2022-07-29T02:23:02;18.00;67.10
41760;DHT22;27438;53.396;-6.670;2022-07-29T02:25:29;18.00;67.10
41760;DHT22;27438;53.396;-6.670;2022-07-29T02:27:55;18.00;67.00
41760;DHT22;27438;53.396;-6.670;2022-07-29T02:30:22;18.00;67.00
41760;DHT22;27438;53.396;-6.670;2022-07-29T02:32:49;18.10;67.10
41760;DHT22;27438;53.396;-6.670;2022-07-29T02:35:17;18.10;67.10
41760;DHT22;27438;53.396;-6.670;2022-07-29T02:37:44;18.10;67.10
41760;DHT22;27438;53.396;-6.670;2022-07-29T02:40:11;18.10;67.10
41760;DHT22;27438;53.396;-6.670;2022-07-29T02:42:42;18.10;67.10
41760;DHT22;27438;53.396;-6.670;2022-07-29T02:45:10;18.20;67.10
41760;DHT22;27438;53.396;-6.670;2022-07-29T02:47:42;18.10;67.10
41760;DHT22;27438;53.396;-6.670;2022-07-29T02:50:11;18.20;67.20
41760;DHT22;27438;53.396;-6.670;2022-07-29T02:52:42;18.20;67.20
41760;DHT22;27438;53.396;-6.670;2022-07-29T02:57:49;18.10;67.50
41760;DHT22;27438;53.396;-6.670;2022-07-29T03:00:17;18.10;67.40
41760;DHT22;27438;53.396;-6.670;2022-07-29T03:02:44;18.10;67.70
41760;DHT22;27438;53.396;-6.670;2022-07-29T03:05:18;18.00;67.90
41760;DHT22;27438;53.396;-6.670;2022-07-29T03:07:54;18.00;68.40
41760;DHT22;27438;53.396;-6.670;2022-07-29T03:10:21;18.00;68.50
41760;DHT22;27438;53.396;-6.670;2022-07-29T03:12:48;18.00;68.70
41760;DHT22;27438;53.396;-6.670;2022-07-29T03:15:14;18.00;68.80
41760;DHT22;27438;53.396;-6.670;2022-07-29T03:17:40;18.00;69.00
41760;DHT22;27438;53.396;-6.670;2022-07-29T03:20:08;17.90;69.20
41760;DHT22;27438;53.396;-6.670;2022-07-29T03:22:42;17.90;69.50
41760;DHT22;27438;53.396;-6.670;2022-07-29T03:25:14;17.90;69.80
41760;DHT22;27438;53.396;-6.670;2022-07-29T03:27:41;17.90;70.00
41760;DHT22;27438;53.396;-6.670;2022-07-29T03:30:08;17.80;70.20
41760;DHT22;27438;53.396;-6.670;2022-07-29T03:32:35;17.90;70.40
41760;DHT22;27438;53.396;-6.670;2022-07-29T03:35:01;17.90;70.70
41760;DHT22;27438;53.396;-6.670;2022-07-29T03:37:26;17.90;70.80
41760;DHT22;27438;53.396;-6.670;2022-07-29T03:39:55;17.90;71.00
41760;DHT22;27438;53.396;-6.670;2022-07-29T03:42:24;17.90;71.00
41760;DHT22;27438;53.396;-6.670;2022-07-29T03:44:51;17.90;71.20
41760;DHT22;27438;53.396;-6.670;2022-07-29T03:47:21;17.90;71.30
41760;DHT22;27438;53.396;-6.670;2022-07-29T03:49:50;17.90;71.50
41760;DHT22;27438;53.396;-6.670;2022-07-29T03:52:17;17.90;71.60
41760;DHT22;27438;53.396;-6.670;2022-07-29T03:54:43;17.90;71.80
41760;DHT22;27438;53.396;-6.670;2022-07-29T03:57:11;17.90;72.00
41760;DHT22;27438;53.396;-6.670;2022-07-29T03:59:37;17.90;72.10
41760;DHT22;27438;53.396;-6.670;2022-07-29T04:02:05;17.90;72.20
41760;DHT22;27438;53.396;-6.670;2022-07-29T04:04:35;17.90;72.40
41760;DHT22;27438;53.396;-6.670;2022-07-29T04:07:01;17.90;72.60
41760;DHT22;27438;53.396;-6.670;2022-07-29T04:09:27;18.00;72.60
41760;DHT22;27438;53.396;-6.670;2022-07-29T04:11:53;17.90;72.60
41760;DHT22;27438;53.396;-6.670;2022-07-29T04:14:19;18.00;72.70
41760;DHT22;27438;53.396;-6.670;2022-07-29T04:16:46;18.00;72.80
41760;DHT22;27438;53.396;-6.670;2022-07-29T04:19:11;18.00;72.80
41760;DHT22;27438;53.396;-6.670;2022-07-29T04:21:41;18.10;72.90
41760;DHT22;27438;53.396;-6.670;2022-07-29T04:24:07;18.10;73.00
41760;DHT22;27438;53.396;-6.670;2022-07-29T04:26:34;18.10;73.00
41760;DHT22;27438;53.396;-6.670;2022-07-29T04:29:00;18.10;73.00
41760;DHT22;27438;53.396;-6.670;2022-07-29T04:31:26;18.10;73.10
41760;DHT22;27438;53.396;-6.670;2022-07-29T04:33:52;18.10;73.20
41760;DHT22;27438;53.396;-6.670;2022-07-29T04:36:17;18.10;73.30
41760;DHT22;27438;53.396;-6.670;2022-07-29T04:38:43;18.10;73.30
41760;DHT22;27438;53.396;-6.670;2022-07-29T04:41:09;18.10;73.40
41760;DHT22;27438;53.396;-6.670;2022-07-29T04:43:35;18.10;73.50
41760;DHT22;27438;53.396;-6.670;2022-07-29T04:46:02;18.10;73.60
41760;DHT22;27438;53.396;-6.670;2022-07-29T04:48:28;18.10;73.80
41760;DHT22;27438;53.396;-6.670;2022-07-29T04:50:54;18.10;73.90
41760;DHT22;27438;53.396;-6.670;2022-07-29T04:53:19;18.10;73.90
41760;DHT22;27438;53.396;-6.670;2022-07-29T04:55:45;18.10;73.90
41760;DHT22;27438;53.396;-6.670;2022-07-29T04:58:11;18.10;74.00
41760;DHT22;27438;53.396;-6.670;2022-07-29T05:00:37;18.10;74.10
41760;DHT22;27438;53.396;-6.670;2022-07-29T05:03:03;18.10;74.10
41760;DHT22;27438;53.396;-6.670;2022-07-29T05:05:29;18.20;74.20
41760;DHT22;27438;53.396;-6.670;2022-07-29T05:07:55;18.20;74.30
41760;DHT22;27438;53.396;-6.670;2022-07-29T05:10:20;18.20;74.40
41760;DHT22;27438;53.396;-6.670;2022-07-29T05:12:46;18.20;74.40
41760;DHT22;27438;53.396;-6.670;2022-07-29T05:15:12;18.20;74.40
41760;DHT22;27438;53.396;-6.670;2022-07-29T05:17:38;18.20;74.40
41760;DHT22;27438;53.396;-6.670;2022-07-29T05:20:05;18.20;74.40
41760;DHT22;27438;53.396;-6.670;2022-07-29T05:22:31;18.20;74.40
41760;DHT22;27438;53.396;-6.670;2022-07-29T05:24:57;18.30;74.50
41760;DHT22;27438;53.396;-6.670;2022-07-29T05:27:22;18.30;74.60
41760;DHT22;27438;53.396;-6.670;2022-07-29T05:29:48;18.30;74.70
41760;DHT22;27438;53.396;-6.670;2022-07-29T05:32:14;18.30;74.70
41760;DHT22;27438;53.396;-6.670;2022-07-29T05:34:40;18.30;74.70
41760;DHT22;27438;53.396;-6.670;2022-07-29T05:37:06;18.30;74.90
41760;DHT22;27438;53.396;-6.670;2022-07-29T05:39:32;18.30;75.00
41760;DHT22;27438;53.396;-6.670;2022-07-29T05:41:57;18.30;75.10
41760;DHT22;27438;53.396;-6.670;2022-07-29T05:44:23;18.30;75.10
41760;DHT22;27438;53.396;-6.670;2022-07-29T05:46:49;18.40;75.20
41760;DHT22;27438;53.396;-6.670;2022-07-29T05:49:14;18.40;75.20
41760;DHT22;27438;53.396;-6.670;2022-07-29T05:51:40;18.40;75.20
41760;DHT22;27438;53.396;-6.670;2022-07-29T05:54:06;18.50;75.20
41760;DHT22;27438;53.396;-6.670;2022-07-29T05:56:32;18.50;75.20
41760;DHT22;27438;53.396;-6.670;2022-07-29T05:58:57;18.60;75.30
41760;DHT22;27438;53.396;-6.670;2022-07-29T06:01:23;18.60;75.10
41760;DHT22;27438;53.396;-6.670;2022-07-29T06:03:49;18.70;75.00
41760;DHT22;27438;53.396;-6.670;2022-07-29T06:06:15;18.70;74.80
41760;DHT22;27438;53.396;-6.670;2022-07-29T06:08:41;18.70;74.70
41760;DHT22;27438;53.396;-6.670;2022-07-29T06:11:06;18.80;74.70
41760;DHT22;27438;53.396;-6.670;2022-07-29T06:13:34;18.80;74.70
41760;DHT22;27438;53.396;-6.670;2022-07-29T06:16:00;18.90;74.60
41760;DHT22;27438;53.396;-6.670;2022-07-29T06:18:26;19.00;74.50
41760;DHT22;27438;53.396;-6.670;2022-07-29T06:20:53;19.00;74.50
41760;DHT22;27438;53.396;-6.670;2022-07-29T06:23:19;19.10;74.40
41760;DHT22;27438;53.396;-6.670;2022-07-29T06:25:45;19.10;74.30
41760;DHT22;27438;53.396;-6.670;2022-07-29T06:28:11;19.20;74.10
41760;DHT22;27438;53.396;-6.670;2022-07-29T06:30:38;19.20;74.20
41760;DHT22;27438;53.396;-6.670;2022-07-29T06:33:04;19.20;73.90
41760;DHT22;27438;53.396;-6.670;2022-07-29T06:35:32;19.30;73.80
41760;DHT22;27438;53.396;-6.670;2022-07-29T06:37:58;19.30;73.90
41760;DHT22;27438;53.396;-6.670;2022-07-29T06:40:23;19.40;73.70
41760;DHT22;27438;53.396;-6.670;2022-07-29T06:43:08;19.40;73.80
41760;DHT22;27438;53.396;-6.670;2022-07-29T06:45:34;19.50;73.80
41760;DHT22;27438;53.396;-6.670;2022-07-29T06:48:00;19.50;73.70
41760;DHT22;27438;53.396;-6.670;2022-07-29T06:50:26;19.60;73.80
41760;DHT22;27438;53.396;-6.670;2022-07-29T06:52:52;19.70;73.80
41760;DHT22;27438;53.396;-6.670;2022-07-29T06:55:17;19.80;73.60
41760;DHT22;27438;53.396;-6.670;2022-07-29T06:57:45;19.80;73.40
41760;DHT22;27438;53.396;-6.670;2022-07-29T07:00:12;19.90;73.30
41760;DHT22;27438;53.396;-6.670;2022-07-29T07:02:38;19.90;73.20
41760;DHT22;27438;53.396;-6.670;2022-07-29T07:05:04;20.00;73.20
41760;DHT22;27438;53.396;-6.670;2022-07-29T07:07:31;20.10;73.10
41760;DHT22;27438;53.396;-6.670;2022-07-29T07:09:57;20.20;72.90
41760;DHT22;27438;53.396;-6.670;2022-07-29T07:12:22;20.30;72.70
41760;DHT22;27438;53.396;-6.670;2022-07-29T07:14:48;20.30;72.40
41760;DHT22;27438;53.396;-6.670;2022-07-29T07:17:14;20.40;72.10
41760;DHT22;27438;53.396;-6.670;2022-07-29T07:19:39;20.50;72.00
41760;DHT22;27438;53.396;-6.670;2022-07-29T07:22:05;20.50;71.90
41760;DHT22;27438;53.396;-6.670;2022-07-29T07:24:31;20.60;71.50
41760;DHT22;27438;53.396;-6.670;2022-07-29T07:26:56;20.60;71.30
41760;DHT22;27438;53.396;-6.670;2022-07-29T07:29:22;20.70;71.20
41760;DHT22;27438;53.396;-6.670;2022-07-29T07:31:48;20.70;71.00
41760;DHT22;27438;53.396;-6.670;2022-07-29T07:34:14;20.80;71.00
41760;DHT22;27438;53.396;-6.670;2022-07-29T07:36:40;20.80;71.00
41760;DHT22;27438;53.396;-6.670;2022-07-29T07:39:05;20.90;70.70
41760;DHT22;27438;53.396;-6.670;2022-07-29T07:41:31;20.80;70.40
41760;DHT22;27438;53.396;-6.670;2022-07-29T07:43:57;20.80;70.20
41760;DHT22;27438;53.396;-6.670;2022-07-29T07:46:23;20.80;70.60
41760;DHT22;27438;53.396;-6.670;2022-07-29T07:48:48;20.80;70.60
41760;DHT22;27438;53.396;-6.670;2022-07-29T07:51:14;20.90;70.90
41760;DHT22;27438;53.396;-6.670;2022-07-29T07:53:40;21.00;71.10
41760;DHT22;27438;53.396;-6.670;2022-07-29T07:56:06;21.10;71.00
41760;DHT22;27438;53.396;-6.670;2022-07-29T07:58:32;21.10;70.50
41760;DHT22;27438;53.396;-6.670;2022-07-29T08:00:58;21.20;70.30
41760;DHT22;27438;53.396;-6.670;2022-07-29T08:03:24;21.30;70.20
41760;DHT22;27438;53.396;-6.670;2022-07-29T08:05:49;21.30;70.20
41760;DHT22;27438;53.396;-6.670;2022-07-29T08:08:17;21.40;70.00
41760;DHT22;27438;53.396;-6.670;2022-07-29T08:10:43;21.50;69.70
41760;DHT22;27438;53.396;-6.670;2022-07-29T08:13:19;21.60;69.50
41760;DHT22;27438;53.396;-6.670;2022-07-29T08:15:45;21.60;69.20
41760;DHT22;27438;53.396;-6.670;2022-07-29T08:18:12;21.70;69.00
41760;DHT22;27438;53.396;-6.670;2022-07-29T08:20:38;21.70;69.30
41760;DHT22;27438;53.396;-6.670;2022-07-29T08:23:05;21.80;69.30
41760;DHT22;27438;53.396;-6.670;2022-07-29T08:25:37;21.90;69.30
41760;DHT22;27438;53.396;-6.670;2022-07-29T08:28:04;22.10;68.60
41760;DHT22;27438;53.396;-6.670;2022-07-29T08:30:30;22.20;68.50
41760;DHT22;27438;53.396;-6.670;2022-07-29T08:32:58;22.20;68.10
41760;DHT22;27438;53.396;-6.670;2022-07-29T08:35:24;22.30;67.80
41760;DHT22;27438;53.396;-6.670;2022-07-29T08:37:50;22.30;67.20
41760;DHT22;27438;53.396;-6.670;2022-07-29T08:40:16;22.30;67.10
41760;DHT22;27438;53.396;-6.670;2022-07-29T08:42:42;22.30;66.90
41760;DHT22;27438;53.396;-6.670;2022-07-29T08:45:08;22.30;66.40
41760;DHT22;27438;53.396;-6.670;2022-07-29T08:47:35;22.30;66.40
41760;DHT22;27438;53.396;-6.670;2022-07-29T08:50:05;22.40;66.20
41760;DHT22;27438;53.396;-6.670;2022-07-29T08:52:35;22.40;65.90
41760;DHT22;27438;53.396;-6.670;2022-07-29T08:55:01;22.40;65.00
41760;DHT22;27438;53.396;-6.670;2022-07-29T08:57:28;22.30;64.40
41760;DHT22;27438;53.396;-6.670;2022-07-29T08:59:54;22.20;64.50
41760;DHT22;27438;53.396;-6.670;2022-07-29T09:02:24;22.00;64.80
41760;DHT22;27438;53.396;-6.670;2022-07-29T09:04:51;22.00;65.20
41760;DHT22;27438;53.396;-6.670;2022-07-29T09:07:18;22.00;65.60
41760;DHT22;27438;53.396;-6.670;2022-07-29T09:09:44;22.10;65.70
41760;DHT22;27438;53.396;-6.670;2022-07-29T09:12:11;22.20;65.60
41760;DHT22;27438;53.396;-6.670;2022-07-29T09:14:40;22.20;65.00
41760;DHT22;27438;53.396;-6.670;2022-07-29T09:17:06;22.20;64.70
41760;DHT22;27438;53.396;-6.670;2022-07-29T09:19:37;22.20;64.90
41760;DHT22;27438;53.396;-6.670;2022-07-29T09:22:07;22.20;64.70
41760;DHT22;27438;53.396;-6.670;2022-07-29T09:27:01;22.20;64.50
41760;DHT22;27438;53.396;-6.670;2022-07-29T09:29:27;22.30;65.00
41760;DHT22;27438;53.396;-6.670;2022-07-29T09:31:54;22.40;65.40
41760;DHT22;27438;53.396;-6.670;2022-07-29T09:34:25;22.60;64.70
41760;DHT22;27438;53.396;-6.670;2022-07-29T09:36:52;22.80;64.40
41760;DHT22;27438;53.396;-6.670;2022-07-29T09:39:39;23.00;63.90
41760;DHT22;27438;53.396;-6.670;2022-07-29T09:42:13;23.30;63.10
41760;DHT22;27438;53.396;-6.670;2022-07-29T09:44:52;23.50;62.30
41760;DHT22;27438;53.396;-6.670;2022-07-29T09:47:18;23.50;61.60
41760;DHT22;27438;53.396;-6.670;2022-07-29T09:49:54;23.50;60.80
41760;DHT22;27438;53.396;-6.670;2022-07-29T09:52:21;23.40;61.00
41760;DHT22;27438;53.396;-6.670;2022-07-29T09:54:47;23.40;61.30
41760;DHT22;27438;53.396;-6.670;2022-07-29T09:57:42;23.50;61.30
41760;DHT22;27438;53.396;-6.670;2022-07-29T10:00:09;23.70;60.90
41760;DHT22;27438;53.396;-6.670;2022-07-29T10:02:36;23.80;60.60
41760;DHT22;27438;53.396;-6.670;2022-07-29T10:05:09;23.80;60.00
41760;DHT22;27438;53.396;-6.670;2022-07-29T10:07:46;23.90;59.30
41760;DHT22;27438;53.396;-6.670;2022-07-29T10:10:22;23.80;59.20
41760;DHT22;27438;53.396;-6.670;2022-07-29T10:12:56;23.80;59.30
41760;DHT22;27438;53.396;-6.670;2022-07-29T10:15:25;23.80;59.50
41760;DHT22;27438;53.396;-6.670;2022-07-29T10:17:52;23.90;59.90
41760;DHT22;27438;53.396;-6.670;2022-07-29T10:20:19;24.00;59.90
41760;DHT22;27438;53.396;-6.670;2022-07-29T10:22:46;24.30;59.60
41760;DHT22;27438;53.396;-6.670;2022-07-29T10:25:14;24.60;59.30
41760;DHT22;27438;53.396;-6.670;2022-07-29T10:27:40;24.90;58.50
41760;DHT22;27438;53.396;-6.670;2022-07-29T10:30:06;25.20;56.30
41760;DHT22;27438;53.396;-6.670;2022-07-29T10:41:04;25.60;54.10
41760;DHT22;27438;53.396;-6.670;2022-07-29T10:43:53;25.70;53.70
41760;DHT22;27438;53.396;-6.670;2022-07-29T10:46:20;25.80;54.60
41760;DHT22;27438;53.396;-6.670;2022-07-29T10:49:15;25.90;55.20
41760;DHT22;27438;53.396;-6.670;2022-07-29T11:05:09;25.80;52.70
41760;DHT22;27438;53.396;-6.670;2022-07-29T11:07:37;25.70;52.80
41760;DHT22;27438;53.396;-6.670;2022-07-29T11:15:07;25.10;52.80
41760;DHT22;27438;53.396;-6.670;2022-07-29T11:20:44;25.00;53.30
41760;DHT22;27438;53.396;-6.670;2022-07-29T11:23:27;24.90;53.30
41760;DHT22;27438;53.396;-6.670;2022-07-29T11:31:40;24.70;54.20
41760;DHT22;27438;53.396;-6.670;2022-07-29T11:34:27;24.90;55.10
41760;DHT22;27438;53.396;-6.670;2022-07-29T11:45:05;25.30;52.00
41760;DHT22;27438;53.396;-6.670;2022-07-29T11:47:41;25.00;52.60
41760;DHT22;27438;53.396;-6.670;2022-07-29T11:50:11;24.80;53.00
41760;DHT22;27438;53.396;-6.670;2022-07-29T11:52:45;24.50;53.60
41760;DHT22;27438;53.396;-6.670;2022-07-29T11:55:22;24.30;54.20
41760;DHT22;27438;53.396;-6.670;2022-07-29T11:57:54;24.20;54.90
41760;DHT22;27438;53.396;-6.670;2022-07-29T12:00:25;24.10;55.30
41760;DHT22;27438;53.396;-6.670;2022-07-29T12:02:51;24.00;55.70
41760;DHT22;27438;53.396;-6.670;2022-07-29T12:05:18;24.00;55.70
41760;DHT22;27438;53.396;-6.670;2022-07-29T12:07:44;23.90;55.80
41760;DHT22;27438;53.396;-6.670;2022-07-29T12:10:10;24.00;56.60
41760;DHT22;27438;53.396;-6.670;2022-07-29T12:12:36;24.20;57.20
41760;DHT22;27438;53.396;-6.670;2022-07-29T12:15:31;24.90;57.60
41760;DHT22;27438;53.396;-6.670;2022-07-29T12:17:56;26.70;55.20
41760;DHT22;27438;53.396;-6.670;2022-07-29T12:20:27;28.20;54.10
41760;DHT22;27438;53.396;-6.670;2022-07-29T12:22:54;30.40;50.60
41760;DHT22;27438;53.396;-6.670;2022-07-29T12:25:21;32.90;47.60
41760;DHT22;27438;53.396;-6.670;2022-07-29T12:27:47;35.00;42.00
41760;DHT22;27438;53.396;-6.670;2022-07-29T12:30:22;36.30;37.60
41760;DHT22;27438;53.396;-6.670;2022-07-29T12:32:49;36.20;35.50
41760;DHT22;27438;53.396;-6.670;2022-07-29T12:35:17;35.30;35.50
41760;DHT22;27438;53.396;-6.670;2022-07-29T12:37:46;34.10;36.40
41760;DHT22;27438;53.396;-6.670;2022-07-29T12:40:17;33.00;38.10
41760;DHT22;27438;53.396;-6.670;2022-07-29T12:43:09;32.50;40.30
41760;DHT22;27438;53.396;-6.670;2022-07-29T12:45:37;32.30;38.80
41760;DHT22;27438;53.396;-6.670;2022-07-29T12:48:03;31.60;39.20
41760;DHT22;27438;53.396;-6.670;2022-07-29T12:50:29;30.80;40.20
41760;DHT22;27438;53.396;-6.670;2022-07-29T12:53:09;30.30;42.50
41760;DHT22;27438;53.396;-6.670;2022-07-29T12:55:43;30.50;42.50
41760;DHT22;27438;53.396;-6.670;2022-07-29T12:58:09;31.20;41.50
41760;DHT22;27438;53.396;-6.670;2022-07-29T13:00:35;31.30;40.00
41760;DHT22;27438;53.396;-6.670;2022-07-29T13:03:01;30.90;39.70
41760;DHT22;27438;53.396;-6.670;2022-07-29T13:05:44;30.40;40.70
41760;DHT22;27438;53.396;-6.670;2022-07-29T13:08:17;30.70;42.50
41760;DHT22;27438;53.396;-6.670;2022-07-29T13:10:45;31.80;40.80
41760;DHT22;27438;53.396;-6.670;2022-07-29T13:13:13;32.20;39.20
41760;DHT22;27438;53.396;-6.670;2022-07-29T13:15:41;32.00;38.70
41760;DHT22;27438;53.396;-6.670;2022-07-29T13:18:30;31.30;38.60
41760;DHT22;27438;53.396;-6.670;2022-07-29T13:20:57;30.40;40.10
41760;DHT22;27438;53.396;-6.670;2022-07-29T13:23:35;29.50;41.20
41760;DHT22;27438;53.396;-6.670;2022-07-29T13:26:10;28.80;42.50
41760;DHT22;27438;53.396;-6.670;2022-07-29T13:28:41;28.20;43.80
41760;DHT22;27438;53.396;-6.670;2022-07-29T13:31:07;27.90;44.40
41760;DHT22;27438;53.396;-6.670;2022-07-29T13:33:33;27.60;44.60
41760;DHT22;27438;53.396;-6.670;2022-07-29T13:36:00;27.30;44.90
41760;DHT22;27438;53.396;-6.670;2022-07-29T13:38:25;26.90;45.60
41760;DHT22;27438;53.396;-6.670;2022-07-29T13:40:52;26.70;46.50
41760;DHT22;27438;53.396;-6.670;2022-07-29T13:43:18;26.60;47.20
41760;DHT22;27438;53.396;-6.670;2022-07-29T13:45:43;26.60;47.70
41760;DHT22;27438;53.396;-6.670;2022-07-29T13:48:09;26.70;48.00
41760;DHT22;27438;53.396;-6.670;2022-07-29T13:50:35;26.70;47.70
41760;DHT22;27438;53.396;-6.670;2022-07-29T13:53:01;26.70;47.50
41760;DHT22;27438;53.396;-6.670;2022-07-29T13:55:26;26.70;47.70
41760;DHT22;27438;53.396;-6.670;2022-07-29T13:57:52;26.80;48.00
41760;DHT22;27438;53.396;-6.670;2022-07-29T14:00:17;26.90;48.40
41760;DHT22;27438;53.396;-6.670;2022-07-29T14:02:44;27.50;49.10
41760;DHT22;27438;53.396;-6.670;2022-07-29T14:05:10;28.20;47.00
41760;DHT22;27438;53.396;-6.670;2022-07-29T14:07:37;28.50;45.80
41760;DHT22;27438;53.396;-6.670;2022-07-29T14:10:04;28.50;45.30
41760;DHT22;27438;53.396;-6.670;2022-07-29T14:12:30;28.40;44.80
41760;DHT22;27438;53.396;-6.670;2022-07-29T14:14:56;28.10;45.00
41760;DHT22;27438;53.396;-6.670;2022-07-29T14:17:21;27.70;45.30
41760;DHT22;27438;53.396;-6.670;2022-07-29T14:19:48;27.20;46.00
41760;DHT22;27438;53.396;-6.670;2022-07-29T14:22:14;26.80;46.80
41760;DHT22;27438;53.396;-6.670;2022-07-29T14:24:40;26.60;47.70
41760;DHT22;27438;53.396;-6.670;2022-07-29T14:27:07;26.30;48.60
41760;DHT22;27438;53.396;-6.670;2022-07-29T14:29:33;26.10;49.30
41760;DHT22;27438;53.396;-6.670;2022-07-29T14:31:58;26.00;49.80
41760;DHT22;27438;53.396;-6.670;2022-07-29T14:34:24;26.10;50.10
41760;DHT22;27438;53.396;-6.670;2022-07-29T14:36:50;26.00;50.10
41760;DHT22;27438;53.396;-6.670;2022-07-29T14:39:15;25.90;50.20
41760;DHT22;27438;53.396;-6.670;2022-07-29T14:41:42;25.80;50.50
41760;DHT22;27438;53.396;-6.670;2022-07-29T14:44:08;25.60;50.80
41760;DHT22;27438;53.396;-6.670;2022-07-29T14:46:34;25.50;51.00
41760;DHT22;27438;53.396;-6.670;2022-07-29T14:48:59;25.30;51.20
41760;DHT22;27438;53.396;-6.670;2022-07-29T14:51:25;25.30;51.70
41760;DHT22;27438;53.396;-6.670;2022-07-29T14:53:51;25.20;51.90
41760;DHT22;27438;53.396;-6.670;2022-07-29T14:56:17;25.20;52.10
41760;DHT22;27438;53.396;-6.670;2022-07-29T14:58:43;25.10;52.20
41760;DHT22;27438;53.396;-6.670;2022-07-29T15:01:08;25.10;52.10
41760;DHT22;27438;53.396;-6.670;2022-07-29T15:03:34;25.00;52.50
41760;DHT22;27438;53.396;-6.670;2022-07-29T15:06:00;24.90;52.50
41760;DHT22;27438;53.396;-6.670;2022-07-29T15:08:25;24.90;53.40
41760;DHT22;27438;53.396;-6.670;2022-07-29T15:10:53;24.90;52.90
41760;DHT22;27438;53.396;-6.670;2022-07-29T15:13:19;24.90;52.90
41760;DHT22;27438;53.396;-6.670;2022-07-29T15:15:45;24.80;52.90
41760;DHT22;27438;53.396;-6.670;2022-07-29T15:18:10;24.80;52.90
41760;DHT22;27438;53.396;-6.670;2022-07-29T15:20:36;24.80;53.30
41760;DHT22;27438;53.396;-6.670;2022-07-29T15:23:02;24.90;53.70
41760;DHT22;27438;53.396;-6.670;2022-07-29T15:25:28;25.10;53.40
41760;DHT22;27438;53.396;-6.670;2022-07-29T15:27:54;25.30;53.00
41760;DHT22;27438;53.396;-6.670;2022-07-29T15:30:19;25.40;52.80
41760;DHT22;27438;53.396;-6.670;2022-07-29T15:32:45;25.50;52.50
41760;DHT22;27438;53.396;-6.670;2022-07-29T15:35:11;25.50;52.30
41760;DHT22;27438;53.396;-6.670;2022-07-29T15:37:38;25.60;51.90
41760;DHT22;27438;53.396;-6.670;2022-07-29T15:40:05;25.50;51.60
41760;DHT22;27438;53.396;-6.670;2022-07-29T15:42:31;25.40;51.90
41760;DHT22;27438;53.396;-6.670;2022-07-29T15:44:57;25.30;52.10
41760;DHT22;27438;53.396;-6.670;2022-07-29T15:47:22;25.30;52.90
41760;DHT22;27438;53.396;-6.670;2022-07-29T15:49:48;25.20;52.10
41760;DHT22;27438;53.396;-6.670;2022-07-29T15:52:18;25.10;52.20
41760;DHT22;27438;53.396;-6.670;2022-07-29T15:54:44;24.90;52.40
41760;DHT22;27438;53.396;-6.670;2022-07-29T15:57:10;24.90;52.80
41760;DHT22;27438;53.396;-6.670;2022-07-29T15:59:36;24.80;52.90
41760;DHT22;27438;53.396;-6.670;2022-07-29T16:02:02;24.80;53.10
41760;DHT22;27438;53.396;-6.670;2022-07-29T16:04:28;24.70;52.80
41760;DHT22;27438;53.396;-6.670;2022-07-29T16:06:54;24.60;53.00
41760;DHT22;27438;53.396;-6.670;2022-07-29T16:09:20;24.60;53.50
41760;DHT22;27438;53.396;-6.670;2022-07-29T16:11:46;24.60;53.60
41760;DHT22;27438;53.396;-6.670;2022-07-29T16:14:16;24.60;53.40
41760;DHT22;27438;53.396;-6.670;2022-07-29T16:16:41;24.60;53.40
41760;DHT22;27438;53.396;-6.670;2022-07-29T16:19:08;24.60;53.30
41760;DHT22;27438;53.396;-6.670;2022-07-29T16:21:35;24.60;53.10
41760;DHT22;27438;53.396;-6.670;2022-07-29T16:24:02;24.60;53.20
41760;DHT22;27438;53.396;-6.670;2022-07-29T16:26:28;24.60;53.20
41760;DHT22;27438;53.396;-6.670;2022-07-29T16:28:54;24.60;53.10